METAR Data
IDs: Format: Raw Decoded Include TAF

Data at: 0153 UTC 25 Feb 2021

EBLB 250125Z AUTO 20006KT 9999 NCD 09/05 Q1027 BLU